createdAt,value
2018-01-14T00:02:22.829Z,100933.22
2018-01-14T00:04:50.598Z,100926.80
2018-01-14T00:07:18.003Z,100924.04
2018-01-14T00:09:45.422Z,100928.01
2018-01-14T00:12:12.837Z,100920.80
2018-01-14T00:14:40.282Z,100916.02
2018-01-14T00:17:07.709Z,100917.19
2018-01-14T00:19:35.124Z,100914.21
2018-01-14T00:22:02.553Z,100913.05
2018-01-14T00:24:29.969Z,100911.14
2018-01-14T00:26:57.389Z,100913.46
2018-01-14T00:29:24.804Z,100923.14
2018-01-14T00:31:52.237Z,100924.46
2018-01-14T00:34:19.651Z,100921.24
2018-01-14T00:36:47.064Z,100916.05
2018-01-14T00:39:14.495Z,100919.10
2018-01-14T00:41:41.901Z,100917.34
2018-01-14T00:44:09.317Z,100913.89
2018-01-14T00:46:36.734Z,100916.95
2018-01-14T00:49:04.165Z,100910.91
2018-01-14T00:51:31.589Z,100900.63
2018-01-14T00:53:59.088Z,100892.05
2018-01-14T00:56:26.493Z,100892.70
2018-01-14T00:58:53.909Z,100891.47
2018-01-14T01:01:21.345Z,100888.90
2018-01-14T01:03:48.753Z,100888.26
2018-01-14T01:06:16.170Z,100888.91
2018-01-14T01:08:43.608Z,100887.73
2018-01-14T01:11:11.066Z,100889.58
2018-01-14T01:13:38.494Z,100896.02
2018-01-14T01:16:05.920Z,100896.83
2018-01-14T01:18:33.329Z,100893.59
2018-01-14T01:21:00.733Z,100901.88
2018-01-14T01:23:28.153Z,100907.09
2018-01-14T01:25:55.556Z,100909.98
2018-01-14T01:28:22.977Z,100913.95
2018-01-14T01:30:50.381Z,100912.02
2018-01-14T01:33:17.809Z,100912.45
2018-01-14T01:35:45.241Z,100908.78
2018-01-14T01:38:12.704Z,100908.30
2018-01-14T01:40:40.111Z,100904.16
2018-01-14T01:43:07.537Z,100909.27
2018-01-14T01:45:34.953Z,100909.59
2018-01-14T01:48:02.365Z,100903.58
2018-01-14T01:50:29.796Z,100906.28
2018-01-14T01:52:57.205Z,100908.63
2018-01-14T01:55:24.620Z,100895.73
2018-01-14T01:57:52.048Z,100901.42
2018-01-14T02:00:19.485Z,100896.80
2018-01-14T02:02:46.893Z,100894.30
2018-01-14T02:05:14.308Z,100896.12
2018-01-14T02:07:41.981Z,100894.23
2018-01-14T02:10:09.417Z,100891.59
2018-01-14T02:12:36.833Z,100884.32
2018-01-14T02:15:04.272Z,100884.66
2018-01-14T02:17:31.750Z,100882.09
2018-01-14T02:19:59.183Z,100878.38
2018-01-14T02:22:26.585Z,100879.37
2018-01-14T02:24:54.009Z,100878.13
2018-01-14T02:27:21.754Z,100868.04
2018-01-14T02:29:49.183Z,100866.47
2018-01-14T02:32:16.589Z,100868.45
2018-01-14T02:34:44.045Z,100886.22
2018-01-14T02:37:11.449Z,100885.95
2018-01-14T02:39:38.891Z,100876.27
2018-01-14T02:42:06.295Z,100882.58
2018-01-14T02:44:33.736Z,100882.58
2018-01-14T02:47:01.157Z,100876.45
2018-01-14T02:49:28.579Z,100868.94
2018-01-14T02:51:55.998Z,100862.97
2018-01-14T02:54:23.409Z,100868.34
2018-01-14T02:56:50.857Z,100869.00
2018-01-14T02:59:18.269Z,100867.44
2018-01-14T03:01:45.701Z,100876.61
2018-01-14T03:04:13.125Z,100872.97
2018-01-14T03:06:40.574Z,100879.76
2018-01-14T03:09:07.998Z,100869.99
2018-01-14T03:11:35.473Z,100872.55
2018-01-14T03:14:02.881Z,100871.06
2018-01-14T03:16:30.260Z,100874.88
2018-01-14T03:18:57.678Z,100873.38
2018-01-14T03:21:25.093Z,100873.38
2018-01-14T03:23:52.521Z,100869.03
2018-01-14T03:26:19.947Z,100858.88
2018-01-14T03:28:47.349Z,100862.98
2018-01-14T03:31:14.777Z,100857.85
2018-01-14T03:33:42.182Z,100868.27
2018-01-14T03:36:09.641Z,100854.13
2018-01-14T03:38:37.046Z,100865.27
2018-01-14T03:41:04.465Z,100858.66
2018-01-14T03:43:31.883Z,100854.64
2018-01-14T03:45:59.314Z,100850.25
2018-01-14T03:48:26.725Z,100851.16
2018-01-14T03:50:54.142Z,100844.55
2018-01-14T03:53:21.562Z,100849.41
2018-01-14T03:55:48.969Z,100844.08
2018-01-14T03:58:16.381Z,100847.91
2018-01-14T04:00:43.793Z,100845.02
2018-01-14T04:03:11.210Z,100848.98
2018-01-14T04:05:38.625Z,100847.09
2018-01-14T04:08:06.042Z,100846.62
2018-01-14T04:10:33.460Z,100851.66
2018-01-14T04:13:00.889Z,100850.67
2018-01-14T04:15:28.302Z,100851.34
2018-01-14T04:17:55.713Z,100849.08
2018-01-14T04:20:23.129Z,100848.84
2018-01-14T04:22:50.542Z,100851.34
2018-01-14T04:25:17.958Z,100850.30
2018-01-14T04:27:45.381Z,100843.55
2018-01-14T04:30:12.798Z,100839.17
2018-01-14T04:32:40.477Z,100841.16
2018-01-14T04:35:07.921Z,100842.84
2018-01-14T04:37:35.348Z,100835.95
2018-01-14T04:40:02.780Z,100837.42
2018-01-14T04:42:30.181Z,100838.32
2018-01-14T04:44:57.600Z,100837.94
2018-01-14T04:47:25.013Z,100832.89
2018-01-14T04:49:52.432Z,100822.38
2018-01-14T04:52:19.894Z,100829.16
2018-01-14T04:54:47.265Z,100821.86
2018-01-14T04:57:14.678Z,100818.69
2018-01-14T04:59:42.093Z,100823.88
2018-01-14T05:02:09.509Z,100820.16
2018-01-14T05:04:36.925Z,100826.48
2018-01-14T05:07:04.342Z,100822.47
2018-01-14T05:09:31.757Z,100836.19
2018-01-14T05:11:59.170Z,100834.27
2018-01-14T05:14:26.590Z,100838.55
2018-01-14T05:16:54.006Z,100840.48
2018-01-14T05:19:21.449Z,100846.52
2018-01-14T05:21:48.865Z,100849.69
2018-01-14T05:24:16.282Z,100836.25
2018-01-14T05:26:43.693Z,100846.81
2018-01-14T05:29:12.017Z,100846.00
2018-01-14T05:31:39.461Z,100845.67
2018-01-14T05:34:06.885Z,100844.16
2018-01-14T05:36:34.310Z,100848.19
2018-01-14T05:39:01.717Z,100847.28
2018-01-14T05:41:29.125Z,100845.00
2018-01-14T05:43:56.565Z,100854.36
2018-01-14T05:46:24.010Z,100851.61
2018-01-14T05:48:51.441Z,100853.08
2018-01-14T05:51:18.857Z,100852.33
2018-01-14T05:53:46.285Z,100843.17
2018-01-14T05:56:13.730Z,100841.94
2018-01-14T05:58:41.137Z,100843.32
2018-01-14T06:01:08.558Z,100841.52
2018-01-14T06:03:35.981Z,100841.52
2018-01-14T06:06:03.398Z,100839.20
2018-01-14T06:08:30.893Z,100841.47
2018-01-14T06:10:58.301Z,100848.64
2018-01-14T06:13:25.709Z,100842.98
2018-01-14T06:15:53.133Z,100848.73
2018-01-14T06:18:20.576Z,100846.70
2018-01-14T06:20:48.003Z,100856.42
2018-01-14T06:23:15.417Z,100852.12
2018-01-14T06:25:42.825Z,100864.86
2018-01-14T06:28:10.270Z,100854.98
2018-01-14T06:30:37.678Z,100860.76
2018-01-14T06:33:05.124Z,100858.69
2018-01-14T06:35:32.521Z,100853.30
2018-01-14T06:37:59.958Z,100852.20
2018-01-14T06:40:27.390Z,100852.06
2018-01-14T06:42:54.806Z,100861.12
2018-01-14T06:45:22.262Z,100859.93
2018-01-14T06:47:59.538Z,100855.84
2018-01-14T06:50:26.977Z,100863.59
2018-01-14T06:52:54.401Z,100860.60
2018-01-14T06:55:21.821Z,100862.53
2018-01-14T06:57:49.253Z,100862.09
2018-01-14T07:00:16.717Z,100856.54
2018-01-14T07:02:44.160Z,100857.51
2018-01-14T07:05:11.573Z,100854.02
2018-01-14T07:07:38.977Z,100855.65
2018-01-14T07:10:06.397Z,100862.38
2018-01-14T07:12:33.813Z,100874.89
2018-01-14T07:15:01.244Z,100868.22
2018-01-14T07:17:28.661Z,100866.23
2018-01-14T07:20:02.643Z,100865.77
2018-01-14T07:22:30.145Z,100866.11
2018-01-14T07:24:57.586Z,100863.64
2018-01-14T07:27:25.017Z,100861.91
2018-01-14T07:29:52.453Z,100863.56
2018-01-14T07:32:19.875Z,100865.64
2018-01-14T07:34:47.312Z,100869.03
2018-01-14T07:37:14.718Z,100865.61
2018-01-14T07:39:42.166Z,100868.83
2018-01-14T07:42:09.593Z,100860.28
2018-01-14T07:44:37.032Z,100855.42
2018-01-14T07:47:04.452Z,100860.80
2018-01-14T07:49:31.877Z,100862.55
2018-01-14T07:51:59.301Z,100870.79
2018-01-14T07:54:26.733Z,100870.98
2018-01-14T07:56:54.177Z,100867.56
2018-01-14T07:59:25.178Z,100871.18
2018-01-14T08:01:52.617Z,100880.81
2018-01-14T08:04:20.031Z,100882.80
2018-01-14T08:06:47.461Z,100886.75
2018-01-14T08:09:15.921Z,100885.14
2018-01-14T08:11:43.346Z,100896.84
2018-01-14T08:14:10.765Z,100895.91
2018-01-14T08:16:38.265Z,100894.02
2018-01-14T08:19:05.686Z,100893.59
2018-01-14T08:21:33.117Z,100898.84
2018-01-14T08:24:00.569Z,100901.63
2018-01-14T08:26:27.973Z,100903.47
2018-01-14T08:28:55.438Z,100897.59
2018-01-14T08:31:22.849Z,100905.13
2018-01-14T08:33:50.276Z,100909.09
2018-01-14T08:36:17.729Z,100909.10
2018-01-14T08:38:45.158Z,100904.72
2018-01-14T08:41:12.581Z,100904.41
2018-01-14T08:43:40.003Z,100907.98
2018-01-14T08:46:07.443Z,100901.39
2018-01-14T08:48:34.862Z,100901.90
2018-01-14T08:51:02.286Z,100901.78
2018-01-14T08:53:29.713Z,100909.47
2018-01-14T08:55:57.142Z,100910.39
2018-01-14T08:58:24.571Z,100904.36
2018-01-14T09:00:52.006Z,100907.55
2018-01-14T09:03:19.425Z,100905.22
2018-01-14T09:05:46.864Z,100909.45
2018-01-14T09:08:14.278Z,100901.21
2018-01-14T09:10:41.734Z,100911.50
2018-01-14T09:13:09.149Z,100910.53
2018-01-14T09:15:36.594Z,100906.58
2018-01-14T09:18:04.026Z,100913.36
2018-01-14T09:23:30.609Z,100910.95
2018-01-14T09:25:58.028Z,100911.82
2018-01-14T09:28:25.430Z,100910.18
2018-01-14T09:31:02.817Z,100907.67
2018-01-14T09:33:30.225Z,100905.04
2018-01-14T09:35:57.641Z,100911.91
2018-01-14T09:38:25.167Z,100893.64
2018-01-14T09:40:53.305Z,100903.07
2018-01-14T09:43:20.719Z,100908.39
2018-01-14T09:45:48.129Z,100902.28
2018-01-14T09:48:15.554Z,100904.38
2018-01-14T09:50:42.969Z,100900.81
2018-01-14T09:53:10.390Z,100891.85
2018-01-14T09:55:44.347Z,100893.59
2018-01-14T09:58:11.807Z,100891.63
2018-01-14T10:00:39.237Z,100888.26
2018-01-14T10:03:06.669Z,100887.33
2018-01-14T10:05:34.069Z,100896.59
2018-01-14T10:08:01.489Z,100890.30
2018-01-14T10:10:28.921Z,100890.22
2018-01-14T10:12:56.381Z,100893.43
2018-01-14T10:15:23.876Z,100890.03
2018-01-14T10:17:51.268Z,100889.37
2018-01-14T10:20:19.777Z,100885.92
2018-01-14T10:22:47.196Z,100884.46
2018-01-14T10:25:14.613Z,100882.58
2018-01-14T10:27:42.037Z,100887.79
2018-01-14T10:30:09.460Z,100898.19
2018-01-14T10:32:36.876Z,100899.87
2018-01-14T10:35:12.509Z,100904.00
2018-01-14T10:37:39.953Z,100893.71
2018-01-14T10:40:07.368Z,100890.75
2018-01-14T10:42:41.108Z,100888.84
2018-01-14T10:45:09.599Z,100885.95
2018-01-14T10:47:37.058Z,100882.52
2018-01-14T10:50:12.781Z,100887.19
2018-01-14T10:52:40.204Z,100878.48
2018-01-14T10:55:10.372Z,100883.05
2018-01-14T10:57:44.168Z,100872.47
2018-01-14T11:00:11.602Z,100875.80
2018-01-14T11:02:39.040Z,100877.26
2018-01-14T11:05:06.491Z,100874.41
2018-01-14T11:07:34.410Z,100873.66
2018-01-14T11:10:01.881Z,100868.59
2018-01-14T11:12:30.117Z,100879.81
2018-01-14T11:14:57.556Z,100869.53
2018-01-14T11:17:24.984Z,100874.08
2018-01-14T11:19:52.421Z,100867.33
2018-01-14T11:22:19.824Z,100869.12
2018-01-14T11:24:47.294Z,100868.44
2018-01-14T11:27:14.705Z,100876.05
2018-01-14T11:29:52.033Z,100864.31
2018-01-14T11:32:19.437Z,100868.98
2018-01-14T11:34:46.889Z,100864.53
2018-01-14T11:37:14.310Z,100858.52
2018-01-14T11:39:41.720Z,100854.86
2018-01-14T11:42:09.173Z,100845.23
2018-01-14T11:44:36.645Z,100850.94
2018-01-14T11:47:04.072Z,100858.52
2018-01-14T11:49:31.480Z,100855.77
2018-01-14T11:51:58.947Z,100857.16
2018-01-14T11:54:26.346Z,100858.84
2018-01-14T11:56:53.752Z,100855.83
2018-01-14T11:59:21.199Z,100850.45
2018-01-14T12:01:48.624Z,100847.31
2018-01-14T12:04:16.037Z,100845.66
2018-01-14T12:06:43.449Z,100850.06
2018-01-14T12:09:10.885Z,100842.12
2018-01-14T12:11:38.345Z,100837.27
2018-01-14T12:14:05.782Z,100828.74
2018-01-14T12:16:33.196Z,100831.70
2018-01-14T12:19:01.629Z,100830.19
2018-01-14T12:21:29.061Z,100825.44
2018-01-14T12:23:56.481Z,100830.80
2018-01-14T12:26:23.885Z,100817.05
2018-01-14T12:28:51.330Z,100829.38
2018-01-14T12:31:18.812Z,100828.48
2018-01-14T12:37:05.284Z,100825.71
2018-01-14T12:39:32.716Z,100823.87
2018-01-14T12:42:00.154Z,100814.92
2018-01-14T12:44:27.597Z,100818.73
2018-01-14T12:46:55.030Z,100821.45
2018-01-14T12:49:22.465Z,100820.45
2018-01-14T12:51:49.929Z,100818.88
2018-01-14T12:54:17.371Z,100813.70
2018-01-14T12:56:44.800Z,100813.77
2018-01-14T12:59:12.213Z,100812.05
2018-01-14T13:01:39.624Z,100816.73
2018-01-14T13:04:07.064Z,100818.76
2018-01-14T13:06:34.489Z,100820.35
2018-01-14T13:09:01.898Z,100816.17
2018-01-14T13:11:29.369Z,100815.69
2018-01-14T13:13:56.758Z,100810.29
2018-01-14T13:16:24.180Z,100813.30
2018-01-14T13:18:51.605Z,100811.70
2018-01-14T13:21:19.049Z,100819.77
2018-01-14T13:23:46.472Z,100809.16
2018-01-14T13:26:13.881Z,100805.64
2018-01-14T13:28:42.157Z,100806.37
2018-01-14T13:31:09.592Z,100810.47
2018-01-14T13:33:36.988Z,100802.44
2018-01-14T13:36:04.401Z,100811.65
2018-01-14T13:38:31.816Z,100808.38
2018-01-14T13:40:59.664Z,100808.25
2018-01-14T13:43:27.109Z,100805.92
2018-01-14T13:45:54.514Z,100808.22
2018-01-14T13:48:21.930Z,100817.42
2018-01-14T13:50:49.341Z,100818.66
2018-01-14T13:53:16.760Z,100809.91
2018-01-14T13:55:44.180Z,100811.88
2018-01-14T13:58:11.596Z,100813.13
2018-01-14T14:00:39.009Z,100804.86
2018-01-14T14:03:06.442Z,100805.16
2018-01-14T14:05:33.862Z,100811.13
2018-01-14T14:08:01.266Z,100814.53
2018-01-14T14:10:28.685Z,100813.70
2018-01-14T14:12:56.093Z,100816.26
2018-01-14T14:15:23.501Z,100810.13
2018-01-14T14:17:50.922Z,100808.83
2018-01-14T14:20:18.348Z,100813.38
2018-01-14T14:22:45.770Z,100813.36
2018-01-14T14:25:13.187Z,100807.62
2018-01-14T14:27:40.656Z,100804.58
2018-01-14T14:30:08.107Z,100808.58
2018-01-14T14:32:35.508Z,100799.70
2018-01-14T14:35:02.950Z,100803.44
2018-01-14T14:37:30.339Z,100809.61
2018-01-14T14:39:57.756Z,100813.68
2018-01-14T14:42:25.193Z,100814.08
2018-01-14T14:44:52.619Z,100813.09
2018-01-14T14:47:20.023Z,100816.22
2018-01-14T14:49:47.441Z,100812.76
2018-01-14T14:52:14.845Z,100807.97
2018-01-14T14:54:42.269Z,100812.34
2018-01-14T14:57:09.716Z,100808.84
2018-01-14T14:59:37.120Z,100808.43
2018-01-14T15:02:04.557Z,100804.89
2018-01-14T15:04:32.026Z,100800.05
2018-01-14T15:06:59.876Z,100801.61
2018-01-14T15:09:27.331Z,100798.89
2018-01-14T15:11:54.882Z,100801.45
2018-01-14T15:14:31.349Z,100796.07
2018-01-14T15:16:59.132Z,100795.43
2018-01-14T15:19:26.556Z,100793.94
2018-01-14T15:21:54.084Z,100795.75
2018-01-14T15:24:21.554Z,100797.83
2018-01-14T15:26:49.026Z,100803.44
2018-01-14T15:29:16.464Z,100797.08
2018-01-14T15:31:43.932Z,100793.59
2018-01-14T15:34:11.468Z,100790.77
2018-01-14T15:36:38.955Z,100801.77
2018-01-14T15:39:06.392Z,100806.72
2018-01-14T15:41:33.805Z,100814.39
2018-01-14T15:44:01.560Z,100817.41
2018-01-14T15:46:28.981Z,100808.07
2018-01-14T15:48:56.405Z,100808.69
2018-01-14T15:51:23.845Z,100799.71
2018-01-14T15:53:51.275Z,100797.11
2018-01-14T15:56:18.719Z,100802.66
2018-01-14T15:58:46.128Z,100810.92
2018-01-14T16:01:13.561Z,100806.84
2018-01-14T16:03:40.997Z,100809.62
2018-01-14T16:06:08.420Z,100810.92
2018-01-14T16:08:35.841Z,100809.31
2018-01-14T16:11:03.261Z,100814.02
2018-01-14T16:13:38.366Z,100815.52
2018-01-14T16:16:18.093Z,100807.10
2018-01-14T16:18:46.041Z,100803.61
2018-01-14T16:21:15.448Z,100800.28
2018-01-14T16:23:42.858Z,100801.16
2018-01-14T16:26:10.341Z,100801.58
2018-01-14T16:28:37.812Z,100807.35
2018-01-14T16:31:05.235Z,100816.13
2018-01-14T16:33:34.519Z,100821.52
2018-01-14T16:53:17.930Z,100838.70
2018-01-14T16:55:45.429Z,100837.95
2018-01-14T16:58:12.874Z,100838.70
2018-01-14T17:00:40.317Z,100837.09
2018-01-14T17:03:07.746Z,100830.80
2018-01-14T17:05:35.887Z,100831.39
2018-01-14T17:08:04.372Z,100831.70
2018-01-14T17:10:32.080Z,100826.01
2018-01-14T17:13:00.240Z,100816.23
2018-01-14T17:15:28.576Z,100819.81
2018-01-14T17:17:56.885Z,100827.08
2018-01-14T17:20:24.884Z,100833.67
2018-01-14T17:22:52.778Z,100828.31
2018-01-14T17:25:20.707Z,100828.88
2018-01-14T17:27:48.658Z,100817.66
2018-01-14T17:30:17.583Z,100814.33
2018-01-14T17:32:48.888Z,100816.56
2018-01-14T17:35:17.240Z,100806.53
2018-01-14T17:37:45.910Z,100815.42
2018-01-14T17:40:14.343Z,100805.91
2018-01-14T17:42:42.339Z,100801.29
2018-01-14T17:45:10.643Z,100806.61
2018-01-14T17:47:38.217Z,100806.84
2018-01-14T17:50:11.647Z,100811.77
2018-01-14T17:52:39.109Z,100816.28
2018-01-14T17:55:06.540Z,100816.15
2018-01-14T17:57:33.957Z,100810.88
2018-01-14T18:00:01.420Z,100806.72
2018-01-14T18:02:28.836Z,100806.75
2018-01-14T18:04:56.296Z,100802.97
2018-01-14T18:07:24.003Z,100799.58
2018-01-14T18:09:51.414Z,100795.09
2018-01-14T18:12:18.840Z,100793.33
2018-01-14T18:14:46.268Z,100797.14
2018-01-14T18:17:34.432Z,100797.92
2018-01-14T18:20:07.491Z,100791.00
2018-01-14T18:22:34.908Z,100789.37
2018-01-14T18:25:02.333Z,100791.67
2018-01-14T18:27:30.820Z,100798.20
2018-01-14T18:29:58.281Z,100801.67
2018-01-14T18:32:25.763Z,100808.18
2018-01-14T18:34:53.147Z,100813.59
2018-01-14T18:37:20.587Z,100805.27
2018-01-14T18:39:48.002Z,100802.66
2018-01-14T18:42:15.420Z,100802.52
2018-01-14T18:44:42.886Z,100792.42
2018-01-14T18:47:10.335Z,100793.28
2018-01-14T18:49:37.789Z,100793.82
2018-01-14T18:52:05.242Z,100798.31
2018-01-14T18:54:32.759Z,100797.47
2018-01-14T18:57:00.182Z,100799.26
2018-01-14T18:59:27.628Z,100804.17
2018-01-14T19:01:55.065Z,100802.43
2018-01-14T19:04:22.488Z,100805.92
2018-01-14T19:06:50.839Z,100806.95
2018-01-14T19:09:18.779Z,100802.61
2018-01-14T19:11:46.305Z,100803.92
2018-01-14T19:14:13.708Z,100809.97
2018-01-14T19:16:41.129Z,100803.14
2018-01-14T19:19:08.573Z,100801.44
2018-01-14T19:21:35.984Z,100790.06
2018-01-14T19:24:03.444Z,100785.59
2018-01-14T19:26:30.864Z,100782.15
2018-01-14T19:28:58.326Z,100789.10
2018-01-14T19:31:25.805Z,100790.42
2018-01-14T19:33:53.223Z,100779.11
2018-01-14T19:36:21.614Z,100773.56
2018-01-14T19:38:49.045Z,100776.16
2018-01-14T19:41:17.391Z,100770.78
2018-01-14T19:43:44.804Z,100774.25
2018-01-14T19:46:15.676Z,100777.78
2018-01-14T19:48:50.334Z,100782.69
2018-01-14T19:51:17.777Z,100798.51
2018-01-14T19:53:45.204Z,100793.78
2018-01-14T19:56:12.629Z,100794.92
2018-01-14T19:58:40.042Z,100799.21
2018-01-14T20:01:07.465Z,100791.27
2018-01-14T20:03:34.877Z,100795.58
2018-01-14T20:06:02.340Z,100797.90
2018-01-14T20:08:29.753Z,100788.33
2018-01-14T20:10:57.169Z,100793.84
2018-01-14T20:13:26.195Z,100793.08
2018-01-14T20:29:40.881Z,100777.34
2018-01-14T20:32:08.297Z,100784.70
2018-01-14T20:34:35.717Z,100775.05
2018-01-14T20:37:03.154Z,100778.45
2018-01-14T20:39:30.569Z,100778.37
2018-01-14T20:41:57.992Z,100774.08
2018-01-14T20:44:28.219Z,100769.55
2018-01-14T20:46:55.625Z,100771.30
2018-01-14T20:49:23.048Z,100775.45
2018-01-14T20:51:50.464Z,100770.71
2018-01-14T20:54:17.888Z,100768.86
2018-01-14T20:56:45.317Z,100765.62
2018-01-14T20:59:12.736Z,100765.11
2018-01-14T21:01:40.163Z,100755.27
2018-01-14T21:04:07.580Z,100751.31
2018-01-14T21:06:35.008Z,100746.59
2018-01-14T21:09:02.429Z,100736.14
2018-01-14T21:11:29.902Z,100737.63
2018-01-14T21:13:57.317Z,100747.68
2018-01-14T21:16:24.733Z,100745.36
2018-01-14T21:18:52.161Z,100751.16
2018-01-14T21:21:19.573Z,100749.11
2018-01-14T21:23:46.993Z,100743.59
2018-01-14T21:26:14.415Z,100748.86
2018-01-14T21:28:41.833Z,100745.37
2018-01-14T21:31:09.248Z,100757.53
2018-01-14T21:33:36.665Z,100761.23
2018-01-14T21:36:04.088Z,100760.72
2018-01-14T21:38:31.527Z,100760.47
2018-01-14T21:40:58.972Z,100751.71
2018-01-14T21:43:26.394Z,100750.31
2018-01-14T21:45:53.809Z,100746.59
2018-01-14T21:48:21.230Z,100754.06
2018-01-14T21:50:48.645Z,100750.78
2018-01-14T21:53:16.093Z,100752.92
2018-01-14T21:55:43.517Z,100747.83
2018-01-14T21:58:10.933Z,100741.84
2018-01-14T22:00:38.356Z,100747.66
2018-01-14T22:03:05.776Z,100741.31
2018-01-14T22:05:33.215Z,100739.88
2018-01-14T22:08:00.628Z,100740.08
2018-01-14T22:10:28.062Z,100739.48
2018-01-14T22:12:55.473Z,100739.98
2018-01-14T22:15:22.894Z,100736.47
2018-01-14T22:17:50.313Z,100730.61
2018-01-14T22:20:17.733Z,100733.49
2018-01-14T22:22:45.408Z,100718.72
2018-01-14T22:25:12.824Z,100718.61
2018-01-14T22:27:40.256Z,100711.83
2018-01-14T22:30:07.672Z,100723.17
2018-01-14T22:32:35.094Z,100727.83
2018-01-14T22:35:02.525Z,100720.02
2018-01-14T22:37:29.941Z,100711.95
2018-01-14T22:39:57.364Z,100705.70
2018-01-14T22:42:24.782Z,100697.19
2018-01-14T22:44:52.209Z,100696.52
2018-01-14T22:47:19.625Z,100698.09
2018-01-14T22:49:47.044Z,100698.50
2018-01-14T22:52:14.473Z,100693.61
2018-01-14T22:54:41.893Z,100692.73
2018-01-14T22:57:09.321Z,100691.82
2018-01-14T22:59:36.732Z,100688.91
2018-01-14T23:02:04.159Z,100685.40
2018-01-14T23:04:31.579Z,100690.22
2018-01-14T23:06:59.005Z,100683.84
2018-01-14T23:09:26.420Z,100689.75
2018-01-14T23:11:53.851Z,100682.94
2018-01-14T23:14:21.272Z,100674.29
2018-01-14T23:16:48.682Z,100678.32
2018-01-14T23:19:16.106Z,100678.80
2018-01-14T23:21:43.528Z,100676.28
2018-01-14T23:24:10.960Z,100681.32
2018-01-14T23:26:38.380Z,100674.73
2018-01-14T23:29:05.804Z,100670.39
2018-01-14T23:31:33.232Z,100674.85
2018-01-14T23:34:00.648Z,100668.19
2018-01-14T23:36:28.073Z,100664.02
2018-01-14T23:38:55.494Z,100655.58
2018-01-14T23:41:22.912Z,100656.14
2018-01-14T23:43:50.337Z,100648.55
2018-01-14T23:46:17.760Z,100638.88
2018-01-14T23:48:45.176Z,100641.63
2018-01-14T23:51:12.612Z,100653.41
2018-01-14T23:53:40.028Z,100644.52
2018-01-14T23:56:07.444Z,100637.52
2018-01-14T23:58:34.857Z,100637.47
